Masardis, Maine
Current Conditions -  °F | °C
As of 12:35 PM on Friday 24 Oct 2014 (Local Time) from KPQI Reporting Station
Overcast Overcast  
Wind Chill: 33°   Ceiling: 3300
Heat Index: 41°   Visibility: 10mi
Dew Point: 36°   Wind: 15mph
Humidity: 81%   Direction: 10°N
Pressure: 29.73"   Gusts: NA
Location:  46.5°N, 68.36°W
Report Text: KPQI 241635Z AUTO 01013KT 10SM OVC033 05/02 A2973 RMK AO1
Loading
Personal Weather Stations






























Interactive Weather Map
Tropical Storm Tracking
New forecast layout! Learn more

10-Day Weather Forecast

Advertisements
Track Severe Weather on mobile